sensor_id;sensor_type;location;lat;lon;timestamp;P1;durP1;ratioP1;P2;durP2;ratioP2
10031;SDS011;5056;44.272;19.892;2023-07-09T00:00:56;5.53;;;5.13;;
10031;SDS011;5056;44.272;19.892;2023-07-09T00:03:23;5.63;;;5.13;;
10031;SDS011;5056;44.272;19.892;2023-07-09T00:08:45;6.53;;;5.85;;
10031;SDS011;5056;44.272;19.892;2023-07-09T00:11:13;6.80;;;6.25;;
10031;SDS011;5056;44.272;19.892;2023-07-09T00:13:43;6.25;;;5.63;;
10031;SDS011;5056;44.272;19.892;2023-07-09T00:16:11;7.25;;;5.82;;
10031;SDS011;5056;44.272;19.892;2023-07-09T00:18:39;7.07;;;5.15;;
10031;SDS011;5056;44.272;19.892;2023-07-09T00:21:06;5.95;;;5.40;;
10031;SDS011;5056;44.272;19.892;2023-07-09T00:23:35;5.88;;;5.38;;
10031;SDS011;5056;44.272;19.892;2023-07-09T00:26:07;5.90;;;5.40;;
10031;SDS011;5056;44.272;19.892;2023-07-09T00:28:36;6.20;;;5.70;;
10031;SDS011;5056;44.272;19.892;2023-07-09T00:31:04;7.15;;;5.38;;
10031;SDS011;5056;44.272;19.892;2023-07-09T00:33:31;6.13;;;5.53;;
10031;SDS011;5056;44.272;19.892;2023-07-09T00:35:58;6.40;;;5.80;;
10031;SDS011;5056;44.272;19.892;2023-07-09T00:38:26;5.88;;;5.38;;
10031;SDS011;5056;44.272;19.892;2023-07-09T00:40:59;5.97;;;5.47;;
10031;SDS011;5056;44.272;19.892;2023-07-09T00:43:29;6.57;;;5.97;;
10031;SDS011;5056;44.272;19.892;2023-07-09T00:49:24;6.35;;;5.85;;
10031;SDS011;5056;44.272;19.892;2023-07-09T00:51:54;7.90;;;6.15;;
10031;SDS011;5056;44.272;19.892;2023-07-09T00:54:25;5.90;;;5.35;;
10031;SDS011;5056;44.272;19.892;2023-07-09T00:57:13;7.38;;;5.72;;
10031;SDS011;5056;44.272;19.892;2023-07-09T00:59:43;6.55;;;5.85;;
10031;SDS011;5056;44.272;19.892;2023-07-09T01:02:10;5.97;;;5.47;;
10031;SDS011;5056;44.272;19.892;2023-07-09T01:04:41;7.10;;;5.70;;
10031;SDS011;5056;44.272;19.892;2023-07-09T01:07:08;6.10;;;5.60;;
10031;SDS011;5056;44.272;19.892;2023-07-09T01:09:36;6.35;;;5.88;;
10031;SDS011;5056;44.272;19.892;2023-07-09T01:12:06;6.13;;;5.47;;
10031;SDS011;5056;44.272;19.892;2023-07-09T01:14:35;6.20;;;5.60;;
10031;SDS011;5056;44.272;19.892;2023-07-09T01:19:55;6.13;;;5.63;;
10031;SDS011;5056;44.272;19.892;2023-07-09T01:22:25;6.07;;;5.55;;
10031;SDS011;5056;44.272;19.892;2023-07-09T01:24:54;6.03;;;5.53;;
10031;SDS011;5056;44.272;19.892;2023-07-09T01:27:28;5.72;;;5.22;;
10031;SDS011;5056;44.272;19.892;2023-07-09T01:29:58;6.22;;;5.57;;
10031;SDS011;5056;44.272;19.892;2023-07-09T01:32:27;8.25;;;5.43;;
10031;SDS011;5056;44.272;19.892;2023-07-09T01:34:58;6.75;;;6.07;;
10031;SDS011;5056;44.272;19.892;2023-07-09T01:37:32;6.50;;;5.53;;
10031;SDS011;5056;44.272;19.892;2023-07-09T01:40:00;5.82;;;5.32;;
10031;SDS011;5056;44.272;19.892;2023-07-09T01:42:32;7.75;;;5.97;;
10031;SDS011;5056;44.272;19.892;2023-07-09T01:44:59;7.60;;;5.72;;
10031;SDS011;5056;44.272;19.892;2023-07-09T01:47:29;7.30;;;5.90;;
10031;SDS011;5056;44.272;19.892;2023-07-09T01:49:56;5.75;;;5.25;;
10031;SDS011;5056;44.272;19.892;2023-07-09T01:52:23;5.53;;;5.03;;
10031;SDS011;5056;44.272;19.892;2023-07-09T01:54:54;6.30;;;5.80;;
10031;SDS011;5056;44.272;19.892;2023-07-09T01:57:22;5.90;;;5.30;;
10031;SDS011;5056;44.272;19.892;2023-07-09T01:59:50;7.38;;;5.93;;
10031;SDS011;5056;44.272;19.892;2023-07-09T02:02:18;6.15;;;5.55;;
10031;SDS011;5056;44.272;19.892;2023-07-09T02:04:46;6.35;;;5.82;;
10031;SDS011;5056;44.272;19.892;2023-07-09T02:07:13;6.20;;;5.53;;
10031;SDS011;5056;44.272;19.892;2023-07-09T02:09:40;5.88;;;5.38;;
10031;SDS011;5056;44.272;19.892;2023-07-09T02:12:10;7.78;;;5.68;;
10031;SDS011;5056;44.272;19.892;2023-07-09T02:14:37;6.35;;;5.43;;
10031;SDS011;5056;44.272;19.892;2023-07-09T02:17:05;6.32;;;5.40;;
10031;SDS011;5056;44.272;19.892;2023-07-09T02:19:32;5.85;;;5.32;;
10031;SDS011;5056;44.272;19.892;2023-07-09T02:22:00;7.10;;;5.97;;
10031;SDS011;5056;44.272;19.892;2023-07-09T02:24:27;6.30;;;5.70;;
10031;SDS011;5056;44.272;19.892;2023-07-09T02:26:54;6.85;;;6.15;;
10031;SDS011;5056;44.272;19.892;2023-07-09T02:29:23;6.53;;;5.88;;
10031;SDS011;5056;44.272;19.892;2023-07-09T02:31:51;6.55;;;5.57;;
10031;SDS011;5056;44.272;19.892;2023-07-09T02:34:19;5.93;;;5.43;;
10031;SDS011;5056;44.272;19.892;2023-07-09T02:37:02;6.30;;;5.70;;
10031;SDS011;5056;44.272;19.892;2023-07-09T02:39:29;6.70;;;5.82;;
10031;SDS011;5056;44.272;19.892;2023-07-09T02:41:56;7.00;;;5.65;;
10031;SDS011;5056;44.272;19.892;2023-07-09T02:44:25;7.53;;;5.47;;
10031;SDS011;5056;44.272;19.892;2023-07-09T02:46:52;6.20;;;5.70;;
10031;SDS011;5056;44.272;19.892;2023-07-09T02:49:19;7.28;;;6.57;;
10031;SDS011;5056;44.272;19.892;2023-07-09T02:51:58;6.07;;;5.57;;
10031;SDS011;5056;44.272;19.892;2023-07-09T02:54:25;5.95;;;5.45;;
10031;SDS011;5056;44.272;19.892;2023-07-09T02:56:52;5.50;;;5.00;;
10031;SDS011;5056;44.272;19.892;2023-07-09T02:59:20;6.10;;;5.40;;
10031;SDS011;5056;44.272;19.892;2023-07-09T03:01:49;6.80;;;6.20;;
10031;SDS011;5056;44.272;19.892;2023-07-09T03:04:16;8.00;;;6.10;;
10031;SDS011;5056;44.272;19.892;2023-07-09T03:06:53;6.13;;;5.60;;
10031;SDS011;5056;44.272;19.892;2023-07-09T03:09:21;6.85;;;5.85;;
10031;SDS011;5056;44.272;19.892;2023-07-09T03:11:49;6.53;;;5.53;;
10031;SDS011;5056;44.272;19.892;2023-07-09T03:14:17;6.43;;;5.82;;
10031;SDS011;5056;44.272;19.892;2023-07-09T03:16:50;8.82;;;5.95;;
10031;SDS011;5056;44.272;19.892;2023-07-09T03:19:17;5.90;;;5.40;;
10031;SDS011;5056;44.272;19.892;2023-07-09T03:21:44;7.65;;;6.15;;
10031;SDS011;5056;44.272;19.892;2023-07-09T03:24:11;6.75;;;6.10;;
10031;SDS011;5056;44.272;19.892;2023-07-09T03:26:40;6.35;;;5.85;;
10031;SDS011;5056;44.272;19.892;2023-07-09T03:29:07;7.07;;;5.80;;
10031;SDS011;5056;44.272;19.892;2023-07-09T03:31:35;5.85;;;5.35;;
10031;SDS011;5056;44.272;19.892;2023-07-09T03:34:08;6.70;;;5.60;;
10031;SDS011;5056;44.272;19.892;2023-07-09T03:36:36;8.75;;;5.95;;
10031;SDS011;5056;44.272;19.892;2023-07-09T03:39:07;5.75;;;5.28;;
10031;SDS011;5056;44.272;19.892;2023-07-09T03:41:34;6.07;;;5.47;;
10031;SDS011;5056;44.272;19.892;2023-07-09T03:44:01;5.40;;;4.90;;
10031;SDS011;5056;44.272;19.892;2023-07-09T03:46:28;6.55;;;5.93;;
10031;SDS011;5056;44.272;19.892;2023-07-09T03:48:57;6.93;;;5.55;;
10031;SDS011;5056;44.272;19.892;2023-07-09T03:51:27;7.10;;;6.35;;
10031;SDS011;5056;44.272;19.892;2023-07-09T03:53:54;7.00;;;5.80;;
10031;SDS011;5056;44.272;19.892;2023-07-09T03:56:21;6.60;;;5.95;;
10031;SDS011;5056;44.272;19.892;2023-07-09T03:58:47;5.85;;;5.35;;
10031;SDS011;5056;44.272;19.892;2023-07-09T04:01:14;6.57;;;5.85;;
10031;SDS011;5056;44.272;19.892;2023-07-09T04:03:42;5.57;;;5.15;;
10031;SDS011;5056;44.272;19.892;2023-07-09T04:06:09;6.25;;;5.65;;
10031;SDS011;5056;44.272;19.892;2023-07-09T04:08:38;8.20;;;6.25;;
10031;SDS011;5056;44.272;19.892;2023-07-09T04:11:05;8.55;;;6.30;;
10031;SDS011;5056;44.272;19.892;2023-07-09T04:13:32;6.18;;;5.68;;
10031;SDS011;5056;44.272;19.892;2023-07-09T04:15:59;7.22;;;5.78;;
10031;SDS011;5056;44.272;19.892;2023-07-09T04:18:26;5.85;;;5.25;;
10031;SDS011;5056;44.272;19.892;2023-07-09T04:20:53;7.45;;;5.72;;
10031;SDS011;5056;44.272;19.892;2023-07-09T04:23:20;6.68;;;5.45;;
10031;SDS011;5056;44.272;19.892;2023-07-09T04:25:48;7.13;;;6.10;;
10031;SDS011;5056;44.272;19.892;2023-07-09T04:31:08;6.45;;;5.85;;
10031;SDS011;5056;44.272;19.892;2023-07-09T04:33:36;8.15;;;5.72;;
10031;SDS011;5056;44.272;19.892;2023-07-09T04:36:03;6.40;;;5.80;;
10031;SDS011;5056;44.272;19.892;2023-07-09T04:38:31;6.25;;;5.72;;
10031;SDS011;5056;44.272;19.892;2023-07-09T04:41:02;8.32;;;6.30;;
10031;SDS011;5056;44.272;19.892;2023-07-09T04:43:29;7.70;;;7.03;;
10031;SDS011;5056;44.272;19.892;2023-07-09T04:45:56;8.25;;;7.45;;
10031;SDS011;5056;44.272;19.892;2023-07-09T04:48:24;8.07;;;7.38;;
10031;SDS011;5056;44.272;19.892;2023-07-09T04:50:56;7.88;;;7.18;;
10031;SDS011;5056;44.272;19.892;2023-07-09T04:53:24;8.70;;;7.18;;
10031;SDS011;5056;44.272;19.892;2023-07-09T04:55:51;7.68;;;6.88;;
10031;SDS011;5056;44.272;19.892;2023-07-09T04:58:20;8.85;;;6.90;;
10031;SDS011;5056;44.272;19.892;2023-07-09T05:00:48;8.93;;;7.18;;
10031;SDS011;5056;44.272;19.892;2023-07-09T05:03:17;7.28;;;6.57;;
10031;SDS011;5056;44.272;19.892;2023-07-09T05:05:46;6.95;;;6.25;;
10031;SDS011;5056;44.272;19.892;2023-07-09T05:08:13;6.88;;;6.28;;
10031;SDS011;5056;44.272;19.892;2023-07-09T05:10:43;6.78;;;6.20;;
10031;SDS011;5056;44.272;19.892;2023-07-09T05:13:16;6.70;;;6.00;;
10031;SDS011;5056;44.272;19.892;2023-07-09T05:15:46;8.65;;;5.93;;
10031;SDS011;5056;44.272;19.892;2023-07-09T05:18:13;6.68;;;5.78;;
10031;SDS011;5056;44.272;19.892;2023-07-09T05:20:42;6.35;;;5.75;;
10031;SDS011;5056;44.272;19.892;2023-07-09T05:23:09;6.03;;;5.43;;
10031;SDS011;5056;44.272;19.892;2023-07-09T05:25:38;6.35;;;5.75;;
10031;SDS011;5056;44.272;19.892;2023-07-09T05:28:05;5.60;;;5.20;;
10031;SDS011;5056;44.272;19.892;2023-07-09T05:30:32;5.85;;;5.35;;
10031;SDS011;5056;44.272;19.892;2023-07-09T05:33:01;6.07;;;5.55;;
10031;SDS011;5056;44.272;19.892;2023-07-09T05:35:28;7.30;;;5.70;;
10031;SDS011;5056;44.272;19.892;2023-07-09T05:37:55;6.07;;;5.57;;
10031;SDS011;5056;44.272;19.892;2023-07-09T05:40:24;6.15;;;5.65;;
10031;SDS011;5056;44.272;19.892;2023-07-09T05:42:51;6.40;;;5.10;;
10031;SDS011;5056;44.272;19.892;2023-07-09T05:45:18;6.00;;;5.53;;
10031;SDS011;5056;44.272;19.892;2023-07-09T05:47:45;5.70;;;5.20;;
10031;SDS011;5056;44.272;19.892;2023-07-09T05:50:15;5.15;;;4.75;;
10031;SDS011;5056;44.272;19.892;2023-07-09T05:52:43;5.90;;;5.35;;
10031;SDS011;5056;44.272;19.892;2023-07-09T05:55:10;6.00;;;5.32;;
10031;SDS011;5056;44.272;19.892;2023-07-09T05:57:38;5.50;;;5.03;;
10031;SDS011;5056;44.272;19.892;2023-07-09T06:00:05;5.20;;;4.80;;
10031;SDS011;5056;44.272;19.892;2023-07-09T06:02:33;5.20;;;4.72;;
10031;SDS011;5056;44.272;19.892;2023-07-09T06:05:00;5.57;;;5.07;;
10031;SDS011;5056;44.272;19.892;2023-07-09T06:10:00;5.75;;;5.28;;
10031;SDS011;5056;44.272;19.892;2023-07-09T06:12:27;5.32;;;4.82;;
10031;SDS011;5056;44.272;19.892;2023-07-09T06:14:54;5.18;;;4.65;;
10031;SDS011;5056;44.272;19.892;2023-07-09T06:17:22;6.40;;;5.80;;
10031;SDS011;5056;44.272;19.892;2023-07-09T06:19:49;5.03;;;4.63;;
10031;SDS011;5056;44.272;19.892;2023-07-09T06:22:17;5.90;;;5.28;;
10031;SDS011;5056;44.272;19.892;2023-07-09T06:24:46;5.53;;;5.03;;
10031;SDS011;5056;44.272;19.892;2023-07-09T06:27:13;5.22;;;4.78;;
10031;SDS011;5056;44.272;19.892;2023-07-09T06:29:39;5.68;;;5.07;;
10031;SDS011;5056;44.272;19.892;2023-07-09T06:32:06;5.32;;;4.93;;
10031;SDS011;5056;44.272;19.892;2023-07-09T06:34:34;6.15;;;5.57;;
10031;SDS011;5056;44.272;19.892;2023-07-09T06:37:01;5.18;;;4.78;;
10031;SDS011;5056;44.272;19.892;2023-07-09T06:39:30;5.72;;;5.32;;
10031;SDS011;5056;44.272;19.892;2023-07-09T06:41:59;5.25;;;4.85;;
10031;SDS011;5056;44.272;19.892;2023-07-09T06:44:26;5.93;;;5.43;;
10031;SDS011;5056;44.272;19.892;2023-07-09T06:46:53;5.20;;;4.80;;
10031;SDS011;5056;44.272;19.892;2023-07-09T06:49:20;6.28;;;4.65;;
10031;SDS011;5056;44.272;19.892;2023-07-09T06:51:46;5.38;;;4.97;;
10031;SDS011;5056;44.272;19.892;2023-07-09T06:54:14;8.73;;;5.75;;
10031;SDS011;5056;44.272;19.892;2023-07-09T06:56:41;5.65;;;5.20;;
10031;SDS011;5056;44.272;19.892;2023-07-09T06:59:10;4.47;;;4.18;;
10031;SDS011;5056;44.272;19.892;2023-07-09T07:01:37;4.88;;;4.43;;
10031;SDS011;5056;44.272;19.892;2023-07-09T07:04:04;5.35;;;4.85;;
10031;SDS011;5056;44.272;19.892;2023-07-09T07:06:31;5.07;;;4.40;;
10031;SDS011;5056;44.272;19.892;2023-07-09T07:08:58;4.90;;;4.38;;
10031;SDS011;5056;44.272;19.892;2023-07-09T07:11:25;4.97;;;4.57;;
10031;SDS011;5056;44.272;19.892;2023-07-09T07:13:56;4.45;;;4.15;;
10031;SDS011;5056;44.272;19.892;2023-07-09T07:16:25;5.25;;;4.75;;
10031;SDS011;5056;44.272;19.892;2023-07-09T07:18:52;4.85;;;4.55;;
10031;SDS011;5056;44.272;19.892;2023-07-09T07:21:19;5.03;;;4.63;;
10031;SDS011;5056;44.272;19.892;2023-07-09T07:23:46;4.82;;;4.43;;
10031;SDS011;5056;44.272;19.892;2023-07-09T07:26:13;6.28;;;4.97;;
10031;SDS011;5056;44.272;19.892;2023-07-09T07:28:40;4.90;;;4.45;;
10031;SDS011;5056;44.272;19.892;2023-07-09T07:31:08;4.45;;;4.05;;
10031;SDS011;5056;44.272;19.892;2023-07-09T07:33:38;4.55;;;4.15;;
10031;SDS011;5056;44.272;19.892;2023-07-09T07:36:06;4.80;;;4.32;;
10031;SDS011;5056;44.272;19.892;2023-07-09T07:38:34;4.15;;;3.75;;
10031;SDS011;5056;44.272;19.892;2023-07-09T07:41:01;3.88;;;3.58;;
10031;SDS011;5056;44.272;19.892;2023-07-09T07:46:07;4.03;;;3.65;;
10031;SDS011;5056;44.272;19.892;2023-07-09T07:48:34;4.47;;;4.07;;
10031;SDS011;5056;44.272;19.892;2023-07-09T07:51:03;4.40;;;4.10;;
10031;SDS011;5056;44.272;19.892;2023-07-09T07:53:30;5.20;;;3.95;;
10031;SDS011;5056;44.272;19.892;2023-07-09T07:55:57;3.67;;;3.47;;
10031;SDS011;5056;44.272;19.892;2023-07-09T07:58:26;4.35;;;3.08;;
10031;SDS011;5056;44.272;19.892;2023-07-09T08:00:56;2.92;;;2.72;;
10031;SDS011;5056;44.272;19.892;2023-07-09T08:03:25;3.25;;;3.00;;
10031;SDS011;5056;44.272;19.892;2023-07-09T08:05:53;3.20;;;3.00;;
10031;SDS011;5056;44.272;19.892;2023-07-09T08:08:22;3.33;;;3.13;;
10031;SDS011;5056;44.272;19.892;2023-07-09T08:10:49;3.10;;;2.90;;
10031;SDS011;5056;44.272;19.892;2023-07-09T08:13:16;2.75;;;2.55;;
10031;SDS011;5056;44.272;19.892;2023-07-09T08:15:43;3.47;;;2.85;;
10031;SDS011;5056;44.272;19.892;2023-07-09T08:18:13;3.08;;;2.72;;
10031;SDS011;5056;44.272;19.892;2023-07-09T08:20:42;3.30;;;3.10;;
10031;SDS011;5056;44.272;19.892;2023-07-09T08:23:10;3.25;;;2.90;;
10031;SDS011;5056;44.272;19.892;2023-07-09T08:25:38;3.60;;;3.30;;
10031;SDS011;5056;44.272;19.892;2023-07-09T08:28:05;3.22;;;3.00;;
10031;SDS011;5056;44.272;19.892;2023-07-09T08:30:32;3.30;;;2.78;;
10031;SDS011;5056;44.272;19.892;2023-07-09T08:33:00;3.10;;;2.90;;
10031;SDS011;5056;44.272;19.892;2023-07-09T08:35:27;2.83;;;2.70;;
10031;SDS011;5056;44.272;19.892;2023-07-09T08:37:53;3.17;;;2.90;;
10031;SDS011;5056;44.272;19.892;2023-07-09T08:40:20;3.10;;;2.90;;
10031;SDS011;5056;44.272;19.892;2023-07-09T08:42:49;2.92;;;2.72;;
10031;SDS011;5056;44.272;19.892;2023-07-09T08:45:24;2.83;;;2.72;;
10031;SDS011;5056;44.272;19.892;2023-07-09T08:47:57;3.75;;;3.20;;
10031;SDS011;5056;44.272;19.892;2023-07-09T08:50:28;3.10;;;2.90;;
10031;SDS011;5056;44.272;19.892;2023-07-09T08:52:59;3.22;;;3.03;;
10031;SDS011;5056;44.272;19.892;2023-07-09T08:55:28;3.13;;;2.90;;
10031;SDS011;5056;44.272;19.892;2023-07-09T08:58:04;2.95;;;2.75;;
10031;SDS011;5056;44.272;19.892;2023-07-09T09:00:37;3.15;;;2.95;;
10031;SDS011;5056;44.272;19.892;2023-07-09T09:03:08;4.70;;;3.13;;
10031;SDS011;5056;44.272;19.892;2023-07-09T09:05:41;3.20;;;2.90;;
10031;SDS011;5056;44.272;19.892;2023-07-09T09:08:17;2.85;;;2.63;;
10031;SDS011;5056;44.272;19.892;2023-07-09T09:11:00;2.70;;;2.60;;
10031;SDS011;5056;44.272;19.892;2023-07-09T09:13:36;2.38;;;2.28;;
10031;SDS011;5056;44.272;19.892;2023-07-09T09:16:21;3.00;;;2.67;;
10031;SDS011;5056;44.272;19.892;2023-07-09T09:18:50;3.22;;;3.03;;
10031;SDS011;5056;44.272;19.892;2023-07-09T09:21:23;2.90;;;2.70;;
10031;SDS011;5056;44.272;19.892;2023-07-09T09:23:52;2.60;;;2.50;;
10031;SDS011;5056;44.272;19.892;2023-07-09T09:26:26;4.13;;;3.05;;
10031;SDS011;5056;44.272;19.892;2023-07-09T09:28:57;3.30;;;2.78;;
10031;SDS011;5056;44.272;19.892;2023-07-09T09:31:24;3.22;;;3.03;;
10031;SDS011;5056;44.272;19.892;2023-07-09T09:33:51;3.38;;;2.83;;
10031;SDS011;5056;44.272;19.892;2023-07-09T09:36:19;3.55;;;3.22;;
10031;SDS011;5056;44.272;19.892;2023-07-09T09:38:51;2.67;;;2.53;;
10031;SDS011;5056;44.272;19.892;2023-07-09T09:41:21;3.05;;;2.85;;
10031;SDS011;5056;44.272;19.892;2023-07-09T09:43:51;3.03;;;2.60;;
10031;SDS011;5056;44.272;19.892;2023-07-09T09:46:22;2.70;;;2.50;;
10031;SDS011;5056;44.272;19.892;2023-07-09T09:48:50;3.45;;;3.25;;
10031;SDS011;5056;44.272;19.892;2023-07-09T09:51:23;2.85;;;2.65;;
10031;SDS011;5056;44.272;19.892;2023-07-09T09:53:50;3.08;;;2.55;;
10031;SDS011;5056;44.272;19.892;2023-07-09T09:56:20;3.63;;;3.00;;
10031;SDS011;5056;44.272;19.892;2023-07-09T09:58:52;2.53;;;2.40;;
10031;SDS011;5056;44.272;19.892;2023-07-09T10:01:24;3.42;;;2.75;;
10031;SDS011;5056;44.272;19.892;2023-07-09T10:03:55;3.05;;;2.80;;
10031;SDS011;5056;44.272;19.892;2023-07-09T10:06:24;3.20;;;3.00;;
10031;SDS011;5056;44.272;19.892;2023-07-09T10:08:56;2.55;;;2.40;;
10031;SDS011;5056;44.272;19.892;2023-07-09T10:11:29;2.92;;;2.72;;
10031;SDS011;5056;44.272;19.892;2023-07-09T10:14:00;2.50;;;2.22;;
10031;SDS011;5056;44.272;19.892;2023-07-09T10:16:41;3.00;;;2.80;;
10031;SDS011;5056;44.272;19.892;2023-07-09T10:19:12;3.15;;;2.80;;
10031;SDS011;5056;44.272;19.892;2023-07-09T10:21:45;2.88;;;2.67;;
10031;SDS011;5056;44.272;19.892;2023-07-09T10:24:19;3.25;;;3.05;;
10031;SDS011;5056;44.272;19.892;2023-07-09T10:26:56;3.58;;;2.85;;
10031;SDS011;5056;44.272;19.892;2023-07-09T10:29:32;3.13;;;2.92;;
10031;SDS011;5056;44.272;19.892;2023-07-09T10:32:23;3.40;;;3.10;;
10031;SDS011;5056;44.272;19.892;2023-07-09T10:34:57;3.20;;;2.97;;
10031;SDS011;5056;44.272;19.892;2023-07-09T10:37:45;3.33;;;2.97;;
10031;SDS011;5056;44.272;19.892;2023-07-09T10:40:23;3.42;;;2.75;;
10031;SDS011;5056;44.272;19.892;2023-07-09T10:42:54;3.20;;;2.83;;
10031;SDS011;5056;44.272;19.892;2023-07-09T10:48:12;3.17;;;2.97;;
10031;SDS011;5056;44.272;19.892;2023-07-09T10:50:42;4.93;;;3.10;;
10031;SDS011;5056;44.272;19.892;2023-07-09T10:53:11;3.58;;;3.30;;
10031;SDS011;5056;44.272;19.892;2023-07-09T10:55:41;3.83;;;3.50;;
10031;SDS011;5056;44.272;19.892;2023-07-09T10:58:15;3.45;;;3.25;;
10031;SDS011;5056;44.272;19.892;2023-07-09T11:00:48;3.25;;;3.05;;
10031;SDS011;5056;44.272;19.892;2023-07-09T11:03:18;3.75;;;3.45;;
10031;SDS011;5056;44.272;19.892;2023-07-09T11:05:49;3.63;;;3.30;;
10031;SDS011;5056;44.272;19.892;2023-07-09T11:08:20;3.30;;;3.00;;
10031;SDS011;5056;44.272;19.892;2023-07-09T11:10:50;3.80;;;3.50;;
10031;SDS011;5056;44.272;19.892;2023-07-09T11:13:26;3.17;;;2.95;;
10031;SDS011;5056;44.272;19.892;2023-07-09T11:15:58;3.53;;;3.25;;
10031;SDS011;5056;44.272;19.892;2023-07-09T11:18:30;3.17;;;2.97;;
10031;SDS011;5056;44.272;19.892;2023-07-09T11:21:01;3.13;;;2.92;;
10031;SDS011;5056;44.272;19.892;2023-07-09T11:23:37;3.38;;;3.17;;
10031;SDS011;5056;44.272;19.892;2023-07-09T11:26:13;3.80;;;3.33;;
10031;SDS011;5056;44.272;19.892;2023-07-09T11:28:46;4.07;;;3.60;;
10031;SDS011;5056;44.272;19.892;2023-07-09T11:31:20;3.38;;;3.17;;
10031;SDS011;5056;44.272;19.892;2023-07-09T11:34:00;3.63;;;3.33;;
10031;SDS011;5056;44.272;19.892;2023-07-09T11:36:28;3.22;;;3.00;;
10031;SDS011;5056;44.272;19.892;2023-07-09T11:38:56;3.22;;;3.03;;
10031;SDS011;5056;44.272;19.892;2023-07-09T11:41:27;3.75;;;3.45;;
10031;SDS011;5056;44.272;19.892;2023-07-09T11:44:02;2.78;;;2.67;;
10031;SDS011;5056;44.272;19.892;2023-07-09T11:46:30;2.85;;;2.75;;
10031;SDS011;5056;44.272;19.892;2023-07-09T11:48:59;2.88;;;2.67;;
10031;SDS011;5056;44.272;19.892;2023-07-09T11:51:29;3.20;;;3.05;;
10031;SDS011;5056;44.272;19.892;2023-07-09T11:54:04;3.88;;;3.10;;
10031;SDS011;5056;44.272;19.892;2023-07-09T11:56:31;3.55;;;3.25;;
10031;SDS011;5056;44.272;19.892;2023-07-09T11:58:58;2.78;;;2.65;;
10031;SDS011;5056;44.272;19.892;2023-07-09T12:01:27;3.90;;;3.08;;
10031;SDS011;5056;44.272;19.892;2023-07-09T12:03:56;3.58;;;3.30;;
10031;SDS011;5056;44.272;19.892;2023-07-09T12:06:27;3.50;;;3.30;;
10031;SDS011;5056;44.272;19.892;2023-07-09T12:08:56;3.30;;;3.10;;
10031;SDS011;5056;44.272;19.892;2023-07-09T12:11:24;2.80;;;2.70;;
10031;SDS011;5056;44.272;19.892;2023-07-09T12:13:53;2.67;;;2.47;;
10031;SDS011;5056;44.272;19.892;2023-07-09T12:16:23;2.70;;;2.60;;
10031;SDS011;5056;44.272;19.892;2023-07-09T12:18:50;2.78;;;2.58;;
10031;SDS011;5056;44.272;19.892;2023-07-09T12:21:20;2.85;;;2.63;;
10031;SDS011;5056;44.272;19.892;2023-07-09T12:23:49;10.25;;;4.68;;
10031;SDS011;5056;44.272;19.892;2023-07-09T12:28:56;3.15;;;2.72;;
10031;SDS011;5056;44.272;19.892;2023-07-09T12:31:26;3.50;;;3.20;;
10031;SDS011;5056;44.272;19.892;2023-07-09T12:33:55;3.15;;;2.95;;
10031;SDS011;5056;44.272;19.892;2023-07-09T12:36:24;3.15;;;2.95;;
10031;SDS011;5056;44.272;19.892;2023-07-09T12:38:55;3.97;;;3.03;;
10031;SDS011;5056;44.272;19.892;2023-07-09T12:41:23;3.28;;;2.97;;
10031;SDS011;5056;44.272;19.892;2023-07-09T12:43:51;2.70;;;2.50;;
10031;SDS011;5056;44.272;19.892;2023-07-09T12:46:19;3.00;;;2.80;;
10031;SDS011;5056;44.272;19.892;2023-07-09T12:48:47;3.28;;;2.97;;
10031;SDS011;5056;44.272;19.892;2023-07-09T12:51:16;3.30;;;3.00;;
10031;SDS011;5056;44.272;19.892;2023-07-09T12:53:49;2.83;;;2.58;;
10031;SDS011;5056;44.272;19.892;2023-07-09T12:56:27;2.55;;;2.20;;
10031;SDS011;5056;44.272;19.892;2023-07-09T12:58:56;2.60;;;2.50;;
10031;SDS011;5056;44.272;19.892;2023-07-09T13:04:07;3.20;;;2.90;;
10031;SDS011;5056;44.272;19.892;2023-07-09T13:06:36;3.88;;;2.75;;
10031;SDS011;5056;44.272;19.892;2023-07-09T13:09:10;3.45;;;2.80;;
10031;SDS011;5056;44.272;19.892;2023-07-09T13:11:39;2.97;;;2.78;;
10031;SDS011;5056;44.272;19.892;2023-07-09T13:14:16;3.00;;;2.70;;
10031;SDS011;5056;44.272;19.892;2023-07-09T13:16:45;2.45;;;2.25;;
10031;SDS011;5056;44.272;19.892;2023-07-09T13:19:13;2.63;;;2.42;;
10031;SDS011;5056;44.272;19.892;2023-07-09T13:21:56;2.92;;;2.63;;
10031;SDS011;5056;44.272;19.892;2023-07-09T13:24:25;2.97;;;2.78;;
10031;SDS011;5056;44.272;19.892;2023-07-09T13:26:55;2.90;;;2.67;;
10031;SDS011;5056;44.272;19.892;2023-07-09T13:29:24;3.00;;;2.80;;
10031;SDS011;5056;44.272;19.892;2023-07-09T13:31:52;4.13;;;2.88;;
10031;SDS011;5056;44.272;19.892;2023-07-09T13:34:20;3.03;;;2.63;;
10031;SDS011;5056;44.272;19.892;2023-07-09T13:39:28;2.60;;;2.50;;
10031;SDS011;5056;44.272;19.892;2023-07-09T13:41:56;2.47;;;2.38;;
10031;SDS011;5056;44.272;19.892;2023-07-09T13:44:26;2.33;;;2.22;;
10031;SDS011;5056;44.272;19.892;2023-07-09T13:46:54;3.20;;;2.90;;
10031;SDS011;5056;44.272;19.892;2023-07-09T13:49:22;2.88;;;2.67;;
10031;SDS011;5056;44.272;19.892;2023-07-09T13:51:51;3.20;;;3.00;;
10031;SDS011;5056;44.272;19.892;2023-07-09T13:54:22;2.83;;;2.72;;
10031;SDS011;5056;44.272;19.892;2023-07-09T13:56:52;2.75;;;2.55;;
10031;SDS011;5056;44.272;19.892;2023-07-09T13:59:22;4.32;;;3.92;;
10031;SDS011;5056;44.272;19.892;2023-07-09T14:01:52;10.85;;;9.85;;
10031;SDS011;5056;44.272;19.892;2023-07-09T14:04:22;5.57;;;5.03;;
10031;SDS011;5056;44.272;19.892;2023-07-09T14:06:51;3.65;;;3.40;;
10031;SDS011;5056;44.272;19.892;2023-07-09T14:09:30;3.15;;;2.80;;
10031;SDS011;5056;44.272;19.892;2023-07-09T14:11:58;2.75;;;2.55;;
10031;SDS011;5056;44.272;19.892;2023-07-09T14:14:27;3.47;;;2.78;;
10031;SDS011;5056;44.272;19.892;2023-07-09T14:16:57;3.40;;;3.10;;
10031;SDS011;5056;44.272;19.892;2023-07-09T14:19:24;4.10;;;3.80;;
10031;SDS011;5056;44.272;19.892;2023-07-09T14:21:53;3.03;;;2.83;;
10031;SDS011;5056;44.272;19.892;2023-07-09T14:24:21;19.73;;;17.92;;
10031;SDS011;5056;44.272;19.892;2023-07-09T14:26:51;7.28;;;6.60;;
10031;SDS011;5056;44.272;19.892;2023-07-09T14:29:20;3.65;;;3.42;;
10031;SDS011;5056;44.272;19.892;2023-07-09T14:31:48;3.72;;;3.42;;
10031;SDS011;5056;44.272;19.892;2023-07-09T14:34:17;3.60;;;3.30;;
10031;SDS011;5056;44.272;19.892;2023-07-09T14:39:49;3.42;;;3.13;;
10031;SDS011;5056;44.272;19.892;2023-07-09T14:42:15;2.97;;;2.78;;
10031;SDS011;5056;44.272;19.892;2023-07-09T14:44:44;2.85;;;2.53;;
10031;SDS011;5056;44.272;19.892;2023-07-09T14:47:11;2.20;;;2.10;;
10031;SDS011;5056;44.272;19.892;2023-07-09T14:49:42;3.85;;;3.00;;
10031;SDS011;5056;44.272;19.892;2023-07-09T14:52:10;3.85;;;2.70;;
10031;SDS011;5056;44.272;19.892;2023-07-09T14:54:38;3.08;;;2.88;;
10031;SDS011;5056;44.272;19.892;2023-07-09T14:57:08;3.00;;;2.80;;
10031;SDS011;5056;44.272;19.892;2023-07-09T14:59:40;7.82;;;3.20;;
10031;SDS011;5056;44.272;19.892;2023-07-09T15:02:12;2.75;;;2.53;;
10031;SDS011;5056;44.272;19.892;2023-07-09T15:04:49;2.42;;;2.33;;
10031;SDS011;5056;44.272;19.892;2023-07-09T15:07:17;2.88;;;2.67;;
10031;SDS011;5056;44.272;19.892;2023-07-09T15:09:44;3.00;;;2.80;;
10031;SDS011;5056;44.272;19.892;2023-07-09T15:12:16;3.10;;;2.90;;
10031;SDS011;5056;44.272;19.892;2023-07-09T15:14:46;3.22;;;3.03;;
10031;SDS011;5056;44.272;19.892;2023-07-09T15:17:16;6.18;;;5.57;;
10031;SDS011;5056;44.272;19.892;2023-07-09T15:19:44;5.97;;;3.83;;
10031;SDS011;5056;44.272;19.892;2023-07-09T15:22:24;4.53;;;3.42;;
10031;SDS011;5056;44.272;19.892;2023-07-09T15:24:55;5.53;;;5.03;;
10031;SDS011;5056;44.272;19.892;2023-07-09T15:27:23;4.53;;;4.13;;
10031;SDS011;5056;44.272;19.892;2023-07-09T15:29:50;3.50;;;3.20;;
10031;SDS011;5056;44.272;19.892;2023-07-09T15:32:19;2.75;;;2.65;;